sensor_id;sensor_type;location;lat;lon;timestamp;temperature;humidity
43920;DHT22;29578;51.946;5.874;2022-11-03T00:01:41;11.80;78.90
43920;DHT22;29578;51.946;5.874;2022-11-03T00:04:09;11.80;78.90
43920;DHT22;29578;51.946;5.874;2022-11-03T00:06:37;11.80;79.00
43920;DHT22;29578;51.946;5.874;2022-11-03T00:09:06;11.80;79.00
43920;DHT22;29578;51.946;5.874;2022-11-03T00:11:33;11.70;79.00
43920;DHT22;29578;51.946;5.874;2022-11-03T00:13:59;11.80;79.10
43920;DHT22;29578;51.946;5.874;2022-11-03T00:16:25;11.80;79.10
43920;DHT22;29578;51.946;5.874;2022-11-03T00:18:51;11.80;79.10
43920;DHT22;29578;51.946;5.874;2022-11-03T00:21:17;11.80;79.10
43920;DHT22;29578;51.946;5.874;2022-11-03T00:23:43;11.70;79.20
43920;DHT22;29578;51.946;5.874;2022-11-03T00:26:15;11.80;79.20
43920;DHT22;29578;51.946;5.874;2022-11-03T00:28:43;11.80;79.30
43920;DHT22;29578;51.946;5.874;2022-11-03T00:31:12;11.80;79.20
43920;DHT22;29578;51.946;5.874;2022-11-03T00:33:39;11.80;79.20
43920;DHT22;29578;51.946;5.874;2022-11-03T00:36:06;11.80;79.20
43920;DHT22;29578;51.946;5.874;2022-11-03T00:38:32;11.80;79.20
43920;DHT22;29578;51.946;5.874;2022-11-03T00:41:00;11.80;79.20
43920;DHT22;29578;51.946;5.874;2022-11-03T00:43:28;11.80;79.20
43920;DHT22;29578;51.946;5.874;2022-11-03T00:45:54;11.80;79.30
43920;DHT22;29578;51.946;5.874;2022-11-03T00:48:20;11.80;79.30
43920;DHT22;29578;51.946;5.874;2022-11-03T00:51:02;11.90;79.40
43920;DHT22;29578;51.946;5.874;2022-11-03T00:53:29;11.80;79.20
43920;DHT22;29578;51.946;5.874;2022-11-03T00:55:55;11.90;79.30
43920;DHT22;29578;51.946;5.874;2022-11-03T00:58:21;11.80;79.30
43920;DHT22;29578;51.946;5.874;2022-11-03T01:00:47;11.90;79.30
43920;DHT22;29578;51.946;5.874;2022-11-03T01:03:13;11.80;79.20
43920;DHT22;29578;51.946;5.874;2022-11-03T01:05:40;11.80;79.20
43920;DHT22;29578;51.946;5.874;2022-11-03T01:08:20;11.90;79.40
43920;DHT22;29578;51.946;5.874;2022-11-03T01:10:46;11.90;79.60
43920;DHT22;29578;51.946;5.874;2022-11-03T01:13:32;11.90;79.50
43920;DHT22;29578;51.946;5.874;2022-11-03T01:15:58;11.90;79.50
43920;DHT22;29578;51.946;5.874;2022-11-03T01:18:24;11.90;79.50
43920;DHT22;29578;51.946;5.874;2022-11-03T01:20:54;11.90;79.60
43920;DHT22;29578;51.946;5.874;2022-11-03T01:23:21;11.90;79.60
43920;DHT22;29578;51.946;5.874;2022-11-03T01:25:47;11.80;79.50
43920;DHT22;29578;51.946;5.874;2022-11-03T01:28:13;11.90;80.20
43920;DHT22;29578;51.946;5.874;2022-11-03T01:30:39;11.90;79.70
43920;DHT22;29578;51.946;5.874;2022-11-03T01:33:04;11.90;79.70
43920;DHT22;29578;51.946;5.874;2022-11-03T01:35:30;11.90;79.60
43920;DHT22;29578;51.946;5.874;2022-11-03T01:37:56;11.80;79.50
43920;DHT22;29578;51.946;5.874;2022-11-03T01:40:22;11.90;79.60
43920;DHT22;29578;51.946;5.874;2022-11-03T01:42:48;11.90;79.70
43920;DHT22;29578;51.946;5.874;2022-11-03T01:45:14;11.90;79.70
43920;DHT22;29578;51.946;5.874;2022-11-03T01:47:41;11.90;79.80
43920;DHT22;29578;51.946;5.874;2022-11-03T01:50:11;11.90;79.80
43920;DHT22;29578;51.946;5.874;2022-11-03T01:52:50;11.90;79.80
43920;DHT22;29578;51.946;5.874;2022-11-03T01:55:21;11.80;80.00
43920;DHT22;29578;51.946;5.874;2022-11-03T01:57:50;11.70;80.10
43920;DHT22;29578;51.946;5.874;2022-11-03T02:00:18;11.70;80.20
43920;DHT22;29578;51.946;5.874;2022-11-03T02:02:44;11.60;80.30
43920;DHT22;29578;51.946;5.874;2022-11-03T02:05:12;11.60;80.50
43920;DHT22;29578;51.946;5.874;2022-11-03T02:07:44;11.50;80.70
43920;DHT22;29578;51.946;5.874;2022-11-03T02:10:12;11.50;80.90
43920;DHT22;29578;51.946;5.874;2022-11-03T02:12:38;11.50;81.00
43920;DHT22;29578;51.946;5.874;2022-11-03T02:15:08;11.50;81.20
43920;DHT22;29578;51.946;5.874;2022-11-03T02:17:35;11.30;81.20
43920;DHT22;29578;51.946;5.874;2022-11-03T02:20:06;11.30;81.30
43920;DHT22;29578;51.946;5.874;2022-11-03T02:23:04;11.30;81.40
43920;DHT22;29578;51.946;5.874;2022-11-03T02:25:45;11.30;81.50
43920;DHT22;29578;51.946;5.874;2022-11-03T02:28:16;11.20;81.50
43920;DHT22;29578;51.946;5.874;2022-11-03T02:31:13;11.20;81.70
43920;DHT22;29578;51.946;5.874;2022-11-03T02:33:48;11.10;81.80
43920;DHT22;29578;51.946;5.874;2022-11-03T02:36:39;11.10;81.90
43920;DHT22;29578;51.946;5.874;2022-11-03T02:39:12;11.00;82.00
43920;DHT22;29578;51.946;5.874;2022-11-03T02:41:39;11.00;82.10
43920;DHT22;29578;51.946;5.874;2022-11-03T02:44:12;11.00;82.20
43920;DHT22;29578;51.946;5.874;2022-11-03T02:46:41;10.90;82.20
43920;DHT22;29578;51.946;5.874;2022-11-03T02:49:08;10.90;82.30
43920;DHT22;29578;51.946;5.874;2022-11-03T02:51:33;10.80;82.40
43920;DHT22;29578;51.946;5.874;2022-11-03T02:56:52;10.80;82.50
43920;DHT22;29578;51.946;5.874;2022-11-03T02:59:26;10.80;82.60
43920;DHT22;29578;51.946;5.874;2022-11-03T03:01:58;10.70;82.60
43920;DHT22;29578;51.946;5.874;2022-11-03T03:04:31;10.70;82.70
43920;DHT22;29578;51.946;5.874;2022-11-03T03:07:04;10.70;82.70
43920;DHT22;29578;51.946;5.874;2022-11-03T03:12:20;10.60;82.70
43920;DHT22;29578;51.946;5.874;2022-11-03T03:14:48;10.70;82.70
43920;DHT22;29578;51.946;5.874;2022-11-03T03:20:06;10.60;82.80
43920;DHT22;29578;51.946;5.874;2022-11-03T03:22:54;10.70;82.80
43920;DHT22;29578;51.946;5.874;2022-11-03T03:25:37;10.70;82.70
43920;DHT22;29578;51.946;5.874;2022-11-03T03:28:09;10.70;82.70
43920;DHT22;29578;51.946;5.874;2022-11-03T03:30:36;10.60;83.20
43920;DHT22;29578;51.946;5.874;2022-11-03T03:33:06;10.60;82.70
43920;DHT22;29578;51.946;5.874;2022-11-03T03:35:33;10.50;82.60
43920;DHT22;29578;51.946;5.874;2022-11-03T03:38:04;10.60;82.70
43920;DHT22;29578;51.946;5.874;2022-11-03T03:40:35;10.60;82.80
43920;DHT22;29578;51.946;5.874;2022-11-03T03:43:03;10.60;82.90
43920;DHT22;29578;51.946;5.874;2022-11-03T03:45:31;10.50;82.90
43920;DHT22;29578;51.946;5.874;2022-11-03T03:47:58;10.60;82.90
43920;DHT22;29578;51.946;5.874;2022-11-03T03:50:26;10.50;82.90
43920;DHT22;29578;51.946;5.874;2022-11-03T03:52:56;10.50;83.10
43920;DHT22;29578;51.946;5.874;2022-11-03T03:55:38;10.50;83.10
43920;DHT22;29578;51.946;5.874;2022-11-03T03:58:05;10.40;83.10
43920;DHT22;29578;51.946;5.874;2022-11-03T04:00:31;10.40;83.20
43920;DHT22;29578;51.946;5.874;2022-11-03T04:02:57;10.40;83.20
43920;DHT22;29578;51.946;5.874;2022-11-03T04:05:23;10.50;83.30
43920;DHT22;29578;51.946;5.874;2022-11-03T04:07:49;10.40;83.30
43920;DHT22;29578;51.946;5.874;2022-11-03T04:10:18;10.40;83.30
43920;DHT22;29578;51.946;5.874;2022-11-03T04:12:45;10.50;83.20
43920;DHT22;29578;51.946;5.874;2022-11-03T04:15:24;10.50;83.20
43920;DHT22;29578;51.946;5.874;2022-11-03T04:18:04;10.50;83.20
43920;DHT22;29578;51.946;5.874;2022-11-03T04:20:44;10.50;83.20
43920;DHT22;29578;51.946;5.874;2022-11-03T04:23:25;10.60;83.00
43920;DHT22;29578;51.946;5.874;2022-11-03T04:25:52;10.70;83.60
43920;DHT22;29578;51.946;5.874;2022-11-03T04:28:18;10.60;82.80
43920;DHT22;29578;51.946;5.874;2022-11-03T04:30:45;10.70;82.90
43920;DHT22;29578;51.946;5.874;2022-11-03T04:33:15;10.70;82.80
43920;DHT22;29578;51.946;5.874;2022-11-03T04:35:42;10.70;82.70
43920;DHT22;29578;51.946;5.874;2022-11-03T04:38:25;10.80;82.70
43920;DHT22;29578;51.946;5.874;2022-11-03T04:40:56;10.80;82.70
43920;DHT22;29578;51.946;5.874;2022-11-03T04:43:31;10.90;82.60
43920;DHT22;29578;51.946;5.874;2022-11-03T04:45:57;10.90;82.50
43920;DHT22;29578;51.946;5.874;2022-11-03T04:48:24;10.90;82.40
43920;DHT22;29578;51.946;5.874;2022-11-03T04:50:53;10.90;82.50
43920;DHT22;29578;51.946;5.874;2022-11-03T04:53:21;11.00;82.50
43920;DHT22;29578;51.946;5.874;2022-11-03T04:55:50;11.00;82.40
43920;DHT22;29578;51.946;5.874;2022-11-03T04:58:21;11.00;82.40
43920;DHT22;29578;51.946;5.874;2022-11-03T05:00:51;11.10;82.40
43920;DHT22;29578;51.946;5.874;2022-11-03T05:03:22;11.20;82.30
43920;DHT22;29578;51.946;5.874;2022-11-03T05:05:48;11.20;82.10
43920;DHT22;29578;51.946;5.874;2022-11-03T05:08:16;11.30;82.10
43920;DHT22;29578;51.946;5.874;2022-11-03T05:10:42;11.30;82.00
43920;DHT22;29578;51.946;5.874;2022-11-03T05:13:17;11.30;82.00
43920;DHT22;29578;51.946;5.874;2022-11-03T05:15:44;11.40;82.70
43920;DHT22;29578;51.946;5.874;2022-11-03T05:18:20;11.40;81.90
43920;DHT22;29578;51.946;5.874;2022-11-03T05:20:51;11.40;81.90
43920;DHT22;29578;51.946;5.874;2022-11-03T05:23:20;11.40;82.00
43920;DHT22;29578;51.946;5.874;2022-11-03T05:25:49;11.50;82.10
43920;DHT22;29578;51.946;5.874;2022-11-03T05:28:23;11.50;82.00
43920;DHT22;29578;51.946;5.874;2022-11-03T05:30:50;11.60;82.00
43920;DHT22;29578;51.946;5.874;2022-11-03T05:33:24;11.60;81.80
43920;DHT22;29578;51.946;5.874;2022-11-03T05:35:52;11.60;81.90
43920;DHT22;29578;51.946;5.874;2022-11-03T05:38:19;11.70;81.90
43920;DHT22;29578;51.946;5.874;2022-11-03T05:40:48;11.70;81.90
43920;DHT22;29578;51.946;5.874;2022-11-03T05:43:14;11.70;81.80
43920;DHT22;29578;51.946;5.874;2022-11-03T05:45:41;11.80;81.80
43920;DHT22;29578;51.946;5.874;2022-11-03T05:48:29;11.80;81.70
43920;DHT22;29578;51.946;5.874;2022-11-03T05:50:56;11.90;81.70
43920;DHT22;29578;51.946;5.874;2022-11-03T05:53:28;11.90;81.60
43920;DHT22;29578;51.946;5.874;2022-11-03T05:55:57;11.90;81.60
43920;DHT22;29578;51.946;5.874;2022-11-03T05:58:26;11.90;81.60
43920;DHT22;29578;51.946;5.874;2022-11-03T06:00:53;11.90;81.60
43920;DHT22;29578;51.946;5.874;2022-11-03T06:03:23;11.90;81.70
43920;DHT22;29578;51.946;5.874;2022-11-03T06:05:49;12.00;81.80
43920;DHT22;29578;51.946;5.874;2022-11-03T06:08:20;12.00;81.70
43920;DHT22;29578;51.946;5.874;2022-11-03T06:10:52;12.10;81.70
43920;DHT22;29578;51.946;5.874;2022-11-03T06:13:35;12.00;81.70
43920;DHT22;29578;51.946;5.874;2022-11-03T06:16:05;12.00;81.90
43920;DHT22;29578;51.946;5.874;2022-11-03T06:18:34;12.00;82.00
43920;DHT22;29578;51.946;5.874;2022-11-03T06:21:08;12.00;82.20
43920;DHT22;29578;51.946;5.874;2022-11-03T06:23:36;11.90;82.30
43920;DHT22;29578;51.946;5.874;2022-11-03T06:26:15;11.90;82.50
43920;DHT22;29578;51.946;5.874;2022-11-03T06:28:41;11.80;82.60
43920;DHT22;29578;51.946;5.874;2022-11-03T06:31:17;11.80;82.70
43920;DHT22;29578;51.946;5.874;2022-11-03T06:33:44;11.80;82.90
43920;DHT22;29578;51.946;5.874;2022-11-03T06:36:17;11.70;82.90
43920;DHT22;29578;51.946;5.874;2022-11-03T06:38:47;11.70;83.10
43920;DHT22;29578;51.946;5.874;2022-11-03T06:41:24;11.70;83.10
43920;DHT22;29578;51.946;5.874;2022-11-03T06:43:51;11.70;83.20
43920;DHT22;29578;51.946;5.874;2022-11-03T06:46:20;11.70;83.30
43920;DHT22;29578;51.946;5.874;2022-11-03T06:48:47;11.60;83.30
43920;DHT22;29578;51.946;5.874;2022-11-03T06:51:25;11.70;83.40
43920;DHT22;29578;51.946;5.874;2022-11-03T06:53:54;11.70;83.40
43920;DHT22;29578;51.946;5.874;2022-11-03T06:56:24;11.70;83.40
43920;DHT22;29578;51.946;5.874;2022-11-03T06:58:53;11.70;83.40
43920;DHT22;29578;51.946;5.874;2022-11-03T07:01:23;11.70;83.50
43920;DHT22;29578;51.946;5.874;2022-11-03T07:03:54;11.60;83.50
43920;DHT22;29578;51.946;5.874;2022-11-03T07:06:23;11.70;83.50
43920;DHT22;29578;51.946;5.874;2022-11-03T07:08:59;11.70;83.50
43920;DHT22;29578;51.946;5.874;2022-11-03T07:11:28;11.70;83.40
43920;DHT22;29578;51.946;5.874;2022-11-03T07:14:05;11.80;83.40
43920;DHT22;29578;51.946;5.874;2022-11-03T07:16:40;11.80;83.20
43920;DHT22;29578;51.946;5.874;2022-11-03T07:19:13;11.80;83.20
43920;DHT22;29578;51.946;5.874;2022-11-03T07:21:43;11.80;83.10
43920;DHT22;29578;51.946;5.874;2022-11-03T07:24:18;11.80;83.10
43920;DHT22;29578;51.946;5.874;2022-11-03T07:26:45;11.90;83.20
43920;DHT22;29578;51.946;5.874;2022-11-03T07:29:18;11.90;83.20
43920;DHT22;29578;51.946;5.874;2022-11-03T07:31:45;11.90;83.20
43920;DHT22;29578;51.946;5.874;2022-11-03T07:34:14;11.90;83.20
43920;DHT22;29578;51.946;5.874;2022-11-03T07:36:44;11.90;83.20
43920;DHT22;29578;51.946;5.874;2022-11-03T07:39:14;11.90;83.30
43920;DHT22;29578;51.946;5.874;2022-11-03T07:41:42;11.90;83.30
43920;DHT22;29578;51.946;5.874;2022-11-03T07:44:15;11.90;83.20
43920;DHT22;29578;51.946;5.874;2022-11-03T07:46:42;12.00;83.30
43920;DHT22;29578;51.946;5.874;2022-11-03T07:49:20;12.00;83.20
43920;DHT22;29578;51.946;5.874;2022-11-03T07:51:49;12.00;83.20
43920;DHT22;29578;51.946;5.874;2022-11-03T07:54:19;12.10;83.10
43920;DHT22;29578;51.946;5.874;2022-11-03T07:56:52;12.10;83.10
43920;DHT22;29578;51.946;5.874;2022-11-03T07:59:25;12.10;83.10
43920;DHT22;29578;51.946;5.874;2022-11-03T08:01:53;12.30;83.10
43920;DHT22;29578;51.946;5.874;2022-11-03T08:04:22;12.20;83.10
43920;DHT22;29578;51.946;5.874;2022-11-03T08:06:49;12.20;83.00
43920;DHT22;29578;51.946;5.874;2022-11-03T08:09:16;12.30;83.00
43920;DHT22;29578;51.946;5.874;2022-11-03T08:11:42;12.30;83.00
43920;DHT22;29578;51.946;5.874;2022-11-03T08:14:09;12.30;83.00
43920;DHT22;29578;51.946;5.874;2022-11-03T08:16:35;12.30;83.00
43920;DHT22;29578;51.946;5.874;2022-11-03T08:19:01;12.40;83.10
43920;DHT22;29578;51.946;5.874;2022-11-03T08:21:27;12.40;83.10
43920;DHT22;29578;51.946;5.874;2022-11-03T08:23:53;12.40;83.10
43920;DHT22;29578;51.946;5.874;2022-11-03T08:26:19;12.40;83.10
43920;DHT22;29578;51.946;5.874;2022-11-03T08:28:47;12.40;83.10
43920;DHT22;29578;51.946;5.874;2022-11-03T08:31:13;12.40;83.10
43920;DHT22;29578;51.946;5.874;2022-11-03T08:33:40;12.40;83.00
43920;DHT22;29578;51.946;5.874;2022-11-03T08:36:06;12.40;83.10
43920;DHT22;29578;51.946;5.874;2022-11-03T08:38:33;12.60;83.10
43920;DHT22;29578;51.946;5.874;2022-11-03T08:40:59;12.50;83.70
43920;DHT22;29578;51.946;5.874;2022-11-03T08:43:25;12.50;83.10
43920;DHT22;29578;51.946;5.874;2022-11-03T08:45:51;12.50;83.10
43920;DHT22;29578;51.946;5.874;2022-11-03T08:48:24;12.50;83.10
43920;DHT22;29578;51.946;5.874;2022-11-03T08:50:52;12.60;83.20
43920;DHT22;29578;51.946;5.874;2022-11-03T08:53:20;12.60;83.20
43920;DHT22;29578;51.946;5.874;2022-11-03T08:55:46;12.60;83.20
43920;DHT22;29578;51.946;5.874;2022-11-03T08:58:12;12.80;83.30
43920;DHT22;29578;51.946;5.874;2022-11-03T09:00:38;12.70;83.20
43920;DHT22;29578;51.946;5.874;2022-11-03T09:03:04;12.70;83.20
43920;DHT22;29578;51.946;5.874;2022-11-03T09:05:29;12.80;83.20
43920;DHT22;29578;51.946;5.874;2022-11-03T09:07:55;12.80;83.70
43920;DHT22;29578;51.946;5.874;2022-11-03T09:10:21;12.90;83.00
43920;DHT22;29578;51.946;5.874;2022-11-03T09:12:47;12.90;82.90
43920;DHT22;29578;51.946;5.874;2022-11-03T09:15:13;13.00;82.90
43920;DHT22;29578;51.946;5.874;2022-11-03T09:17:38;13.10;82.80
43920;DHT22;29578;51.946;5.874;2022-11-03T09:20:05;13.10;82.80
43920;DHT22;29578;51.946;5.874;2022-11-03T09:22:31;13.20;82.80
43920;DHT22;29578;51.946;5.874;2022-11-03T09:24:57;13.20;82.70
43920;DHT22;29578;51.946;5.874;2022-11-03T09:27:23;13.20;82.70
43920;DHT22;29578;51.946;5.874;2022-11-03T09:29:49;13.20;82.70
43920;DHT22;29578;51.946;5.874;2022-11-03T09:32:14;13.30;82.70
43920;DHT22;29578;51.946;5.874;2022-11-03T09:34:41;13.30;82.70
43920;DHT22;29578;51.946;5.874;2022-11-03T09:37:07;13.30;82.60
43920;DHT22;29578;51.946;5.874;2022-11-03T09:39:33;13.40;82.60
43920;DHT22;29578;51.946;5.874;2022-11-03T09:41:59;13.50;82.60
43920;DHT22;29578;51.946;5.874;2022-11-03T09:44:25;13.50;82.40
43920;DHT22;29578;51.946;5.874;2022-11-03T09:46:51;13.60;82.40
43920;DHT22;29578;51.946;5.874;2022-11-03T09:49:19;13.60;82.30
43920;DHT22;29578;51.946;5.874;2022-11-03T09:51:46;13.70;82.20
43920;DHT22;29578;51.946;5.874;2022-11-03T09:54:13;13.80;82.10
43920;DHT22;29578;51.946;5.874;2022-11-03T09:56:41;13.80;82.00
43920;DHT22;29578;51.946;5.874;2022-11-03T09:59:21;13.90;82.00
43920;DHT22;29578;51.946;5.874;2022-11-03T10:01:50;13.90;82.00
43920;DHT22;29578;51.946;5.874;2022-11-03T10:04:24;13.90;82.00
43920;DHT22;29578;51.946;5.874;2022-11-03T10:06:51;14.00;82.10
43920;DHT22;29578;51.946;5.874;2022-11-03T10:09:18;13.90;82.10
43920;DHT22;29578;51.946;5.874;2022-11-03T10:11:46;13.90;82.20
43920;DHT22;29578;51.946;5.874;2022-11-03T10:14:14;13.90;82.20
43920;DHT22;29578;51.946;5.874;2022-11-03T10:16:41;13.90;82.20
43920;DHT22;29578;51.946;5.874;2022-11-03T10:19:11;13.90;82.20
43920;DHT22;29578;51.946;5.874;2022-11-03T10:21:37;13.90;82.10
43920;DHT22;29578;51.946;5.874;2022-11-03T10:24:04;14.00;82.10
43920;DHT22;29578;51.946;5.874;2022-11-03T10:26:49;14.00;82.10
43920;DHT22;29578;51.946;5.874;2022-11-03T10:29:21;14.00;82.00
43920;DHT22;29578;51.946;5.874;2022-11-03T10:31:49;14.00;82.00
43920;DHT22;29578;51.946;5.874;2022-11-03T10:34:33;14.10;82.00
43920;DHT22;29578;51.946;5.874;2022-11-03T10:37:23;14.00;81.90
43920;DHT22;29578;51.946;5.874;2022-11-03T10:39:51;14.10;82.00
43920;DHT22;29578;51.946;5.874;2022-11-03T10:42:27;14.10;82.00
43920;DHT22;29578;51.946;5.874;2022-11-03T10:45:17;14.10;82.00
43920;DHT22;29578;51.946;5.874;2022-11-03T10:47:43;14.10;82.00
43920;DHT22;29578;51.946;5.874;2022-11-03T10:50:22;14.10;82.00
43920;DHT22;29578;51.946;5.874;2022-11-03T10:52:49;14.00;82.60
43920;DHT22;29578;51.946;5.874;2022-11-03T10:55:16;14.10;82.00
43920;DHT22;29578;51.946;5.874;2022-11-03T10:57:42;14.10;81.90
43920;DHT22;29578;51.946;5.874;2022-11-03T11:00:16;14.10;81.90
43920;DHT22;29578;51.946;5.874;2022-11-03T11:02:45;14.10;81.90
43920;DHT22;29578;51.946;5.874;2022-11-03T11:05:16;14.10;81.80
43920;DHT22;29578;51.946;5.874;2022-11-03T11:07:44;14.10;81.80
43920;DHT22;29578;51.946;5.874;2022-11-03T11:10:14;14.10;81.70
43920;DHT22;29578;51.946;5.874;2022-11-03T11:15:45;14.10;81.70
43920;DHT22;29578;51.946;5.874;2022-11-03T11:24:56;14.30;81.30
43920;DHT22;29578;51.946;5.874;2022-11-03T11:33:26;14.50;80.80
43920;DHT22;29578;51.946;5.874;2022-11-03T11:36:18;14.50;80.70
43920;DHT22;29578;51.946;5.874;2022-11-03T11:38:54;14.50;80.60
43920;DHT22;29578;51.946;5.874;2022-11-03T11:41:58;14.50;80.60
43920;DHT22;29578;51.946;5.874;2022-11-03T11:47:24;14.60;80.60
43920;DHT22;29578;51.946;5.874;2022-11-03T11:50:14;14.60;80.50
43920;DHT22;29578;51.946;5.874;2022-11-03T11:53:02;14.80;80.50
43920;DHT22;29578;51.946;5.874;2022-11-03T11:55:36;14.80;80.40
43920;DHT22;29578;51.946;5.874;2022-11-03T11:58:11;14.70;80.00
43920;DHT22;29578;51.946;5.874;2022-11-03T12:00:50;14.90;80.10
43920;DHT22;29578;51.946;5.874;2022-11-03T12:03:16;14.90;80.00
43920;DHT22;29578;51.946;5.874;2022-11-03T12:05:48;15.00;80.00
43920;DHT22;29578;51.946;5.874;2022-11-03T12:08:19;15.10;79.80
43920;DHT22;29578;51.946;5.874;2022-11-03T12:10:55;15.00;79.60
43920;DHT22;29578;51.946;5.874;2022-11-03T12:13:50;15.00;79.50
43920;DHT22;29578;51.946;5.874;2022-11-03T12:16:26;15.00;79.50
43920;DHT22;29578;51.946;5.874;2022-11-03T12:18:53;15.20;79.60
43920;DHT22;29578;51.946;5.874;2022-11-03T12:21:44;15.20;79.30
43920;DHT22;29578;51.946;5.874;2022-11-03T12:24:34;15.30;79.10
43920;DHT22;29578;51.946;5.874;2022-11-03T12:27:02;15.30;79.10
43920;DHT22;29578;51.946;5.874;2022-11-03T12:29:29;15.30;79.10
43920;DHT22;29578;51.946;5.874;2022-11-03T12:31:55;15.40;79.10
43920;DHT22;29578;51.946;5.874;2022-11-03T12:34:20;15.30;79.20
43920;DHT22;29578;51.946;5.874;2022-11-03T12:36:46;15.30;79.20
43920;DHT22;29578;51.946;5.874;2022-11-03T12:39:12;15.40;79.30
43920;DHT22;29578;51.946;5.874;2022-11-03T12:41:38;15.40;79.20
43920;DHT22;29578;51.946;5.874;2022-11-03T12:44:04;15.40;79.10
43920;DHT22;29578;51.946;5.874;2022-11-03T12:46:30;15.60;79.20
43920;DHT22;29578;51.946;5.874;2022-11-03T12:48:56;15.50;79.10
43920;DHT22;29578;51.946;5.874;2022-11-03T12:51:23;15.50;79.10
43920;DHT22;29578;51.946;5.874;2022-11-03T12:53:50;15.50;79.00
43920;DHT22;29578;51.946;5.874;2022-11-03T12:56:17;15.40;79.10
43920;DHT22;29578;51.946;5.874;2022-11-03T12:58:43;15.50;79.20
43920;DHT22;29578;51.946;5.874;2022-11-03T13:01:09;15.50;79.20
43920;DHT22;29578;51.946;5.874;2022-11-03T13:03:35;15.50;79.10
43920;DHT22;29578;51.946;5.874;2022-11-03T13:06:03;15.50;79.20
43920;DHT22;29578;51.946;5.874;2022-11-03T13:08:30;15.50;79.20
43920;DHT22;29578;51.946;5.874;2022-11-03T13:10:56;15.50;79.10
43920;DHT22;29578;51.946;5.874;2022-11-03T13:13:22;15.40;79.00
43920;DHT22;29578;51.946;5.874;2022-11-03T13:15:48;15.50;78.90
43920;DHT22;29578;51.946;5.874;2022-11-03T13:18:13;15.50;78.90
43920;DHT22;29578;51.946;5.874;2022-11-03T13:20:39;15.50;78.90
43920;DHT22;29578;51.946;5.874;2022-11-03T13:23:07;15.60;78.90
43920;DHT22;29578;51.946;5.874;2022-11-03T13:25:32;15.60;78.80
43920;DHT22;29578;51.946;5.874;2022-11-03T13:27:58;15.60;78.70
43920;DHT22;29578;51.946;5.874;2022-11-03T13:30:25;15.70;78.60
43920;DHT22;29578;51.946;5.874;2022-11-03T13:32:51;15.80;78.40
43920;DHT22;29578;51.946;5.874;2022-11-03T13:35:18;15.80;78.20
43920;DHT22;29578;51.946;5.874;2022-11-03T13:37:44;15.70;78.20
43920;DHT22;29578;51.946;5.874;2022-11-03T13:40:11;15.80;78.20
43920;DHT22;29578;51.946;5.874;2022-11-03T13:42:38;15.80;78.30
43920;DHT22;29578;51.946;5.874;2022-11-03T13:45:05;15.70;78.20
43920;DHT22;29578;51.946;5.874;2022-11-03T13:47:32;15.70;78.30
43920;DHT22;29578;51.946;5.874;2022-11-03T13:49:58;15.70;78.30
43920;DHT22;29578;51.946;5.874;2022-11-03T13:52:26;15.90;78.30
43920;DHT22;29578;51.946;5.874;2022-11-03T13:54:52;15.70;78.20
43920;DHT22;29578;51.946;5.874;2022-11-03T13:57:19;15.70;78.20
43920;DHT22;29578;51.946;5.874;2022-11-03T13:59:45;15.70;78.20
43920;DHT22;29578;51.946;5.874;2022-11-03T14:02:11;15.70;78.30
43920;DHT22;29578;51.946;5.874;2022-11-03T14:04:37;15.70;78.40
43920;DHT22;29578;51.946;5.874;2022-11-03T14:07:04;15.60;78.40
43920;DHT22;29578;51.946;5.874;2022-11-03T14:09:30;15.60;78.50
43920;DHT22;29578;51.946;5.874;2022-11-03T14:11:56;15.60;78.50
43920;DHT22;29578;51.946;5.874;2022-11-03T14:14:35;15.60;78.50
43920;DHT22;29578;51.946;5.874;2022-11-03T14:17:00;15.50;78.60
43920;DHT22;29578;51.946;5.874;2022-11-03T14:19:26;15.50;78.70
43920;DHT22;29578;51.946;5.874;2022-11-03T14:21:52;15.50;78.80
43920;DHT22;29578;51.946;5.874;2022-11-03T14:24:18;15.40;78.90
43920;DHT22;29578;51.946;5.874;2022-11-03T14:26:44;15.40;79.00
43920;DHT22;29578;51.946;5.874;2022-11-03T14:29:09;15.30;79.00
43920;DHT22;29578;51.946;5.874;2022-11-03T14:31:35;15.30;79.10
43920;DHT22;29578;51.946;5.874;2022-11-03T14:34:01;15.20;79.20
43920;DHT22;29578;51.946;5.874;2022-11-03T14:36:27;15.20;79.30
43920;DHT22;29578;51.946;5.874;2022-11-03T14:38:53;15.20;79.40
43920;DHT22;29578;51.946;5.874;2022-11-03T14:41:19;15.10;79.40
43920;DHT22;29578;51.946;5.874;2022-11-03T14:43:59;15.10;79.60
43920;DHT22;29578;51.946;5.874;2022-11-03T14:46:25;15.00;79.60
43920;DHT22;29578;51.946;5.874;2022-11-03T14:48:51;15.00;79.70
43920;DHT22;29578;51.946;5.874;2022-11-03T14:51:19;14.90;79.70
43920;DHT22;29578;51.946;5.874;2022-11-03T14:53:44;14.90;79.80
43920;DHT22;29578;51.946;5.874;2022-11-03T14:56:10;14.90;79.80
43920;DHT22;29578;51.946;5.874;2022-11-03T14:58:36;14.80;79.80
43920;DHT22;29578;51.946;5.874;2022-11-03T15:01:03;14.80;79.90
43920;DHT22;29578;51.946;5.874;2022-11-03T15:03:29;14.80;80.00
43920;DHT22;29578;51.946;5.874;2022-11-03T15:05:54;14.70;80.00
43920;DHT22;29578;51.946;5.874;2022-11-03T15:08:21;14.60;80.00
43920;DHT22;29578;51.946;5.874;2022-11-03T15:10:49;14.50;80.20
43920;DHT22;29578;51.946;5.874;2022-11-03T15:13:15;14.50;80.50
43920;DHT22;29578;51.946;5.874;2022-11-03T15:15:41;14.30;80.60
43920;DHT22;29578;51.946;5.874;2022-11-03T15:18:08;14.30;80.90
43920;DHT22;29578;51.946;5.874;2022-11-03T15:20:34;14.20;81.20
43920;DHT22;29578;51.946;5.874;2022-11-03T15:23:02;14.10;81.30
43920;DHT22;29578;51.946;5.874;2022-11-03T15:25:28;13.90;81.50
43920;DHT22;29578;51.946;5.874;2022-11-03T15:27:54;13.90;81.70
43920;DHT22;29578;51.946;5.874;2022-11-03T15:30:19;13.80;81.90
43920;DHT22;29578;51.946;5.874;2022-11-03T15:32:45;13.80;82.00
43920;DHT22;29578;51.946;5.874;2022-11-03T15:35:11;13.80;82.20
43920;DHT22;29578;51.946;5.874;2022-11-03T15:37:38;13.70;82.30
43920;DHT22;29578;51.946;5.874;2022-11-03T15:40:05;13.70;82.50
43920;DHT22;29578;51.946;5.874;2022-11-03T15:42:30;13.60;82.50
43920;DHT22;29578;51.946;5.874;2022-11-03T15:44:56;13.50;82.60
43920;DHT22;29578;51.946;5.874;2022-11-03T15:47:23;13.50;82.70
43920;DHT22;29578;51.946;5.874;2022-11-03T15:49:48;13.40;82.70
43920;DHT22;29578;51.946;5.874;2022-11-03T15:52:14;13.40;82.90
43920;DHT22;29578;51.946;5.874;2022-11-03T15:54:40;13.50;83.00
43920;DHT22;29578;51.946;5.874;2022-11-03T15:57:06;13.40;83.00
43920;DHT22;29578;51.946;5.874;2022-11-03T15:59:31;13.30;83.10
43920;DHT22;29578;51.946;5.874;2022-11-03T16:01:57;13.40;83.20
43920;DHT22;29578;51.946;5.874;2022-11-03T16:04:23;13.30;83.30
43920;DHT22;29578;51.946;5.874;2022-11-03T16:06:49;13.30;83.40
43920;DHT22;29578;51.946;5.874;2022-11-03T16:09:14;13.30;83.50
43920;DHT22;29578;51.946;5.874;2022-11-03T16:11:40;13.20;83.50